Time;durP1;ratioP1;P1;durP2;ratioP2;P2;SDS_P1;SDS_P2;PMS_P1;PMS_P2;Temp;Humidity;BMP_temperature;BMP_pressure;BME280_temperature;BME280_humidity;BME280_pressure;Samples;Min_cycle;Max_cycle;Signal;HPM_P1;HPM_P2
2021/11/13 00:00:44;;;;;;;44.90;25.38;;;;;;;;;;5072724;28;20037;-70
2021/11/13 00:03:11;;;;;;;45.80;25.08;;;;;;;;;;5072662;28;20120;-70
2021/11/13 00:05:37;;;;;;;45.42;24.88;;;;;;;;;;5072625;28;20471;-70
2021/11/13 00:08:03;;;;;;;45.55;25.45;;;;;;;;;;5072794;28;20032;-70
2021/11/13 00:10:29;;;;;;;45.92;24.65;;;;;;;;;;5072700;28;20040;-70
2021/11/13 00:12:55;;;;;;;43.35;23.70;;;;;;;;;;5054749;28;20487;-70
2021/11/13 00:15:21;;;;;;;45.30;25.52;;;;;;;;;;5072604;28;20033;-70
2021/11/13 00:17:49;;;;;;;47.20;26.13;;;;;;;;;;5072593;28;20507;-70
2021/11/13 00:20:15;;;;;;;44.30;24.00;;;;;;;;;;5072625;28;20035;-70
2021/11/13 00:22:40;;;;;;;43.15;24.23;;;;;;;;;;5072634;28;20028;-70
2021/11/13 00:25:07;;;;;;;54.85;27.58;;;;;;;;;;5072492;28;20040;-71
2021/11/13 00:27:32;;;;;;;54.75;27.85;;;;;;;;;;5072478;28;20115;-70
2021/11/13 00:29:58;;;;;;;52.63;27.05;;;;;;;;;;5053664;28;20047;-70
2021/11/13 00:32:23;;;;;;;51.92;27.05;;;;;;;;;;5075337;28;20117;-70
2021/11/13 00:34:50;;;;;;;51.25;26.15;;;;;;;;;;5076083;28;20055;-70
2021/11/13 00:37:15;;;;;;;56.20;27.92;;;;;;;;;;5058385;28;20082;-70
2021/11/13 00:39:41;;;;;;;51.03;26.48;;;;;;;;;;5076251;28;20090;-70
2021/11/13 00:42:06;;;;;;;50.65;25.55;;;;;;;;;;5076047;28;20119;-69
2021/11/13 00:44:33;;;;;;;54.28;27.92;;;;;;;;;;5075902;28;20040;-70
2021/11/13 00:47:00;;;;;;;45.50;24.95;;;;;;;;;;5076091;28;20501;-70
2021/11/13 00:49:25;;;;;;;46.30;24.15;;;;;;;;;;5075970;28;20040;-70
2021/11/13 00:51:51;;;;;;;49.70;27.02;;;;;;;;;;5075830;28;20163;-70
2021/11/13 00:54:16;;;;;;;47.22;25.30;;;;;;;;;;5075864;28;20036;-70
2021/11/13 00:56:42;;;;;;;44.95;24.10;;;;;;;;;;5075891;28;20115;-70
2021/11/13 00:59:07;;;;;;;43.10;23.40;;;;;;;;;;5075272;28;20040;-70
2021/11/13 01:01:33;;;;;;;44.92;24.58;;;;;;;;;;5075848;28;20427;-71
2021/11/13 01:03:59;;;;;;;45.05;24.50;;;;;;;;;;5075760;28;20170;-70
2021/11/13 01:06:24;;;;;;;48.80;25.17;;;;;;;;;;5075765;28;20037;-70
2021/11/13 01:08:50;;;;;;;44.28;24.35;;;;;;;;;;5075677;28;20039;-70
2021/11/13 01:11:16;;;;;;;42.67;23.58;;;;;;;;;;5075690;28;20443;-70
2021/11/13 01:13:42;;;;;;;41.65;22.50;;;;;;;;;;5075466;28;20400;-71
2021/11/13 01:16:08;;;;;;;45.13;24.67;;;;;;;;;;5075456;28;20051;-71
2021/11/13 01:18:39;;;;;;;41.05;23.60;;;;;;;;;;5057661;28;20068;-70
2021/11/13 01:21:04;;;;;;;;;;;;;;;;;;5075738;28;20040;-70
2021/11/13 01:23:29;;;;;;;40.53;21.27;;;;;;;;;;5057423;28;20265;-71
2021/11/13 01:25:55;;;;;;;37.33;21.13;;;;;;;;;;5075404;28;20507;-70
2021/11/13 01:28:22;;;;;;;38.97;22.45;;;;;;;;;;5057480;28;20048;-70
2021/11/13 01:30:52;;;;;;;39.78;21.63;;;;;;;;;;5040790;28;20499;-69
2021/11/13 01:33:21;;;;;;;37.72;21.08;;;;;;;;;;5057964;28;20041;-69
2021/11/13 01:35:47;;;;;;;38.78;21.58;;;;;;;;;;5075095;28;20036;-69
2021/11/13 01:38:12;;;;;;;45.03;23.13;;;;;;;;;;5074926;28;20036;-69
2021/11/13 01:40:42;;;;;;;38.22;22.15;;;;;;;;;;5056970;28;20492;-69
2021/11/13 01:43:08;;;;;;;40.05;22.48;;;;;;;;;;5057076;28;20041;-70
2021/11/13 01:45:34;;;;;;;41.67;23.83;;;;;;;;;;5057024;28;20035;-70
2021/11/13 01:47:59;;;;;;;41.47;23.33;;;;;;;;;;5074854;28;20408;-70
2021/11/13 01:50:33;;;;;;;42.45;22.42;;;;;;;;;;5056861;28;20400;-70
2021/11/13 01:52:58;;;;;;;44.00;23.67;;;;;;;;;;5074362;28;20432;-70
2021/11/13 01:55:28;;;;;;;41.60;22.85;;;;;;;;;;5074735;28;20029;-70
2021/11/13 01:57:56;;;;;;;40.00;22.17;;;;;;;;;;5074619;28;20032;-72
2021/11/13 02:00:28;;;;;;;44.20;23.17;;;;;;;;;;5074565;28;20032;-71
2021/11/13 02:02:54;;;;;;;44.60;24.70;;;;;;;;;;5074684;28;20039;-71
2021/11/13 02:05:19;;;;;;;41.63;24.95;;;;;;;;;;5074508;28;20111;-71
2021/11/13 02:07:45;;;;;;;40.08;21.33;;;;;;;;;;5074534;28;20484;-71
2021/11/13 02:10:14;;;;;;;36.15;20.90;;;;;;;;;;5074346;28;20081;-71
2021/11/13 02:12:40;;;;;;;38.58;21.52;;;;;;;;;;5074222;28;20430;-71
2021/11/13 02:15:06;;;;;;;39.53;21.25;;;;;;;;;;5074346;28;20116;-70
2021/11/13 02:17:32;;;;;;;43.63;23.80;;;;;;;;;;5074296;28;20484;-70
2021/11/13 02:20:14;;;;;;;41.45;23.60;;;;;;;;;;5074202;28;20024;-70
2021/11/13 02:22:39;;;;;;;36.65;20.83;;;;;;;;;;5074383;28;20479;-70
2021/11/13 02:25:05;;;;;;;39.92;22.48;;;;;;;;;;5074204;28;20036;-70
2021/11/13 02:27:31;;;;;;;39.80;20.88;;;;;;;;;;5056184;28;20059;-71
2021/11/13 02:29:56;;;;;;;38.88;21.00;;;;;;;;;;5073396;28;20036;-70
2021/11/13 02:32:22;;;;;;;37.47;22.02;;;;;;;;;;5073890;28;20127;-70
2021/11/13 02:34:49;;;;;;;38.38;21.08;;;;;;;;;;5073872;28;20036;-70
2021/11/13 02:37:14;;;;;;;39.30;22.55;;;;;;;;;;5073992;28;20029;-70
2021/11/13 02:39:40;;;;;;;41.55;23.20;;;;;;;;;;5073908;28;20024;-70
2021/11/13 02:42:05;;;;;;;40.40;22.88;;;;;;;;;;5073944;28;20033;-70
2021/11/13 02:44:32;;;;;;;43.03;22.50;;;;;;;;;;5056002;28;20037;-70
2021/11/13 02:46:57;;;;;;;40.45;21.92;;;;;;;;;;5073762;28;20102;-70
2021/11/13 02:49:24;;;;;;;39.45;21.45;;;;;;;;;;5073493;28;20032;-70
2021/11/13 02:51:50;;;;;;;41.55;23.70;;;;;;;;;;5073618;28;20040;-70
2021/11/13 02:54:15;;;;;;;36.75;21.45;;;;;;;;;;5073063;28;20388;-70
2021/11/13 02:56:41;;;;;;;39.38;22.65;;;;;;;;;;5073554;28;20051;-70
2021/11/13 02:59:07;;;;;;;42.45;21.98;;;;;;;;;;5073560;28;20480;-70
2021/11/13 03:01:33;;;;;;;41.85;23.38;;;;;;;;;;5055523;28;20033;-70
2021/11/13 03:03:59;;;;;;;38.90;23.02;;;;;;;;;;5055179;28;20033;-71
2021/11/13 03:06:26;;;;;;;39.95;22.25;;;;;;;;;;5073357;28;20041;-71
2021/11/13 03:08:54;;;;;;;39.30;21.20;;;;;;;;;;5055359;28;20556;-71
2021/11/13 03:11:19;;;;;;;35.47;20.17;;;;;;;;;;5055348;28;20037;-70
2021/11/13 03:13:46;;;;;;;36.80;20.55;;;;;;;;;;5073142;28;20032;-71
2021/11/13 03:16:13;;;;;;;36.10;20.25;;;;;;;;;;5073347;28;20039;-71
2021/11/13 03:18:39;;;;;;;35.92;21.20;;;;;;;;;;5073254;28;20392;-70
2021/11/13 03:21:06;;;;;;;36.95;20.15;;;;;;;;;;5073289;28;20037;-70
2021/11/13 03:23:36;;;;;;;37.65;20.75;;;;;;;;;;5073369;28;20035;-70
2021/11/13 03:26:06;;;;;;;34.33;19.90;;;;;;;;;;5073133;28;20484;-70
2021/11/13 03:28:35;;;;;;;38.38;22.13;;;;;;;;;;5073114;28;20032;-70
2021/11/13 03:31:02;;;;;;;33.88;20.33;;;;;;;;;;5072989;28;20047;-70
2021/11/13 03:33:29;;;;;;;35.67;20.88;;;;;;;;;;5073029;28;20040;-71
2021/11/13 03:35:55;;;;;;;37.83;21.80;;;;;;;;;;5055255;28;20182;-69
2021/11/13 03:38:21;;;;;;;34.92;20.60;;;;;;;;;;5073007;28;20508;-69
2021/11/13 03:40:48;;;;;;;35.47;19.88;;;;;;;;;;5073007;28;20079;-69
2021/11/13 03:43:16;;;;;;;38.22;23.08;;;;;;;;;;5072570;28;20025;-70
2021/11/13 03:45:43;;;;;;;36.53;21.10;;;;;;;;;;5072893;28;20105;-71
2021/11/13 03:48:14;;;;;;;37.53;21.50;;;;;;;;;;5073110;28;20028;-71
2021/11/13 03:50:39;;;;;;;35.38;21.33;;;;;;;;;;5072842;28;20508;-71
2021/11/13 03:53:06;;;;;;;35.20;20.92;;;;;;;;;;5054748;28;20025;-71
2021/11/13 03:55:32;;;;;;;38.72;22.67;;;;;;;;;;5072905;28;20024;-71
2021/11/13 03:57:58;;;;;;;33.60;19.38;;;;;;;;;;5072889;28;20032;-71
2021/11/13 04:00:25;;;;;;;34.03;19.00;;;;;;;;;;5072878;28;20089;-71
2021/11/13 04:02:50;;;;;;;58.15;33.42;;;;;;;;;;5072722;28;20029;-71
2021/11/13 04:05:17;;;;;;;39.42;22.25;;;;;;;;;;5072673;28;20041;-70
2021/11/13 04:07:42;;;;;;;34.90;22.30;;;;;;;;;;5076426;28;20028;-70
2021/11/13 04:10:08;;;;;;;35.20;21.70;;;;;;;;;;5076752;28;20464;-70
2021/11/13 04:12:34;;;;;;;44.25;35.25;;;;;;;;;;5076700;28;20079;-69
2021/11/13 04:15:00;;;;;;;49.60;39.40;;;;;;;;;;5058901;28;20403;-71
2021/11/13 04:17:26;;;;;;;39.88;24.88;;;;;;;;;;5076607;28;20029;-70
2021/11/13 04:19:51;;;;;;;38.22;21.10;;;;;;;;;;5058510;28;20028;-70
2021/11/13 04:22:17;;;;;;;36.78;21.23;;;;;;;;;;5076647;28;20123;-71
2021/11/13 04:24:42;;;;;;;32.45;19.70;;;;;;;;;;5058639;28;20086;-70
2021/11/13 04:27:08;;;;;;;34.17;19.48;;;;;;;;;;5076494;28;20147;-70
2021/11/13 04:29:33;;;;;;;36.28;20.13;;;;;;;;;;5075816;28;20088;-69
2021/11/13 04:32:00;;;;;;;35.30;20.55;;;;;;;;;;5076524;28;20052;-69
2021/11/13 04:34:28;;;;;;;40.28;21.98;;;;;;;;;;5076238;28;20044;-68
2021/11/13 04:36:54;;;;;;;38.28;22.23;;;;;;;;;;5076169;28;20021;-70
2021/11/13 04:39:24;;;;;;;32.63;18.98;;;;;;;;;;5075615;28;20036;-70
2021/11/13 04:41:50;;;;;;;34.25;19.65;;;;;;;;;;5076100;28;20059;-71
2021/11/13 04:44:18;;;;;;;34.40;20.42;;;;;;;;;;5076097;28;20499;-70
2021/11/13 04:46:43;;;;;;;33.88;20.45;;;;;;;;;;5076193;28;20051;-69
2021/11/13 04:49:09;;;;;;;36.95;22.45;;;;;;;;;;5076047;28;20102;-72
2021/11/13 04:51:40;;;;;;;32.20;21.02;;;;;;;;;;5058029;28;20440;-72
2021/11/13 04:54:05;;;;;;;33.40;20.65;;;;;;;;;;5075953;28;20071;-71
2021/11/13 04:56:31;;;;;;;36.17;21.48;;;;;;;;;;5075581;28;20036;-70
2021/11/13 04:58:56;;;;;;;34.28;19.95;;;;;;;;;;5075841;28;20136;-70
2021/11/13 05:01:22;;;;;;;38.58;22.70;;;;;;;;;;5057980;28;20035;-71
2021/11/13 05:03:47;;;;;;;41.90;23.80;;;;;;;;;;5075647;28;20040;-71
2021/11/13 05:06:13;;;;;;;36.88;22.25;;;;;;;;;;5075773;28;20103;-71
2021/11/13 05:08:38;;;;;;;33.67;20.17;;;;;;;;;;5075850;28;20036;-70
2021/11/13 05:11:04;;;;;;;29.15;18.52;;;;;;;;;;5075676;28;20039;-70
2021/11/13 05:13:29;;;;;;;36.63;20.30;;;;;;;;;;5075434;28;20047;-71
2021/11/13 05:15:55;;;;;;;34.92;18.73;;;;;;;;;;5075367;28;20025;-71
2021/11/13 05:18:24;;;;;;;35.78;21.48;;;;;;;;;;5057096;28;20037;-70
2021/11/13 05:20:50;;;;;;;39.22;22.55;;;;;;;;;;5075404;28;20036;-69
2021/11/13 05:23:15;;;;;;;29.63;17.83;;;;;;;;;;5075437;28;20032;-69
2021/11/13 05:25:40;;;;;;;30.95;18.00;;;;;;;;;;5075317;28;20029;-69
2021/11/13 05:28:06;;;;;;;29.77;17.58;;;;;;;;;;5057205;28;20056;-69
2021/11/13 05:30:32;;;;;;;30.23;18.58;;;;;;;;;;5075212;28;20129;-70
2021/11/13 05:32:57;;;;;;;30.77;18.73;;;;;;;;;;5074601;28;20036;-69
2021/11/13 05:35:23;;;;;;;28.42;17.50;;;;;;;;;;5057035;28;20032;-70
2021/11/13 05:37:50;;;;;;;31.52;19.23;;;;;;;;;;5075063;28;20369;-69
2021/11/13 05:40:16;;;;;;;32.88;18.90;;;;;;;;;;5057171;28;20120;-72
2021/11/13 05:42:42;;;;;;;32.17;19.02;;;;;;;;;;5075014;28;20131;-70
2021/11/13 05:45:08;;;;;;;35.65;19.27;;;;;;;;;;5074967;28;20036;-71
2021/11/13 05:47:35;;;;;;;33.33;18.55;;;;;;;;;;5074420;28;20109;-68
2021/11/13 05:50:00;;;;;;;31.30;17.90;;;;;;;;;;5074629;28;20024;-74
2021/11/13 05:52:26;;;;;;;34.65;19.85;;;;;;;;;;5074090;28;20179;-68
2021/11/13 05:54:53;;;;;;;32.80;17.98;;;;;;;;;;5074991;28;20476;-68
2021/11/13 05:57:19;;;;;;;36.03;19.42;;;;;;;;;;5074788;28;20090;-68
2021/11/13 05:59:45;;;;;;;30.65;18.55;;;;;;;;;;5073778;28;20016;-70
2021/11/13 06:02:12;;;;;;;33.83;18.30;;;;;;;;;;5056366;28;20186;-69
2021/11/13 06:04:38;;;;;;;40.85;23.45;;;;;;;;;;5073857;28;20020;-69
2021/11/13 06:07:08;;;;;;;42.85;24.13;;;;;;;;;;5055829;28;20036;-69
2021/11/13 06:09:34;;;;;;;40.78;24.85;;;;;;;;;;5074693;28;20032;-69
2021/11/13 06:11:59;;;;;;;39.88;24.00;;;;;;;;;;5056614;28;20381;-69
2021/11/13 06:14:25;;;;;;;35.97;21.83;;;;;;;;;;5074376;28;20025;-70
2021/11/13 06:16:50;;;;;;;33.80;20.73;;;;;;;;;;5074432;28;20078;-70
2021/11/13 06:19:16;;;;;;;31.48;19.77;;;;;;;;;;5074923;28;20017;-70
2021/11/13 06:21:42;;;;;;;35.92;21.00;;;;;;;;;;5074432;28;20032;-70
2021/11/13 06:24:08;;;;;;;32.53;20.75;;;;;;;;;;5074378;28;20068;-69
2021/11/13 06:26:34;;;;;;;36.17;19.48;;;;;;;;;;5073915;28;20032;-70
2021/11/13 06:29:00;;;;;;;35.33;20.90;;;;;;;;;;5072511;28;20039;-70
2021/11/13 06:31:26;;;;;;;30.52;19.42;;;;;;;;;;5073319;28;20032;-69
2021/11/13 06:33:52;;;;;;;28.35;16.52;;;;;;;;;;5073167;28;20033;-69
2021/11/13 06:36:22;;;;;;;29.02;16.67;;;;;;;;;;5073023;28;20047;-70
2021/11/13 06:38:50;;;;;;;30.52;16.95;;;;;;;;;;5055542;28;20496;-69
2021/11/13 06:41:25;;;;;;;30.13;16.77;;;;;;;;;;5056673;28;20028;-69
2021/11/13 06:43:51;;;;;;;;;;;;;;;;;;5074355;28;20481;-70
2021/11/13 06:46:17;;;;;;;29.75;18.60;;;;;;;;;;5073464;28;19916;-68
2021/11/13 06:48:42;;;;;;;32.08;19.15;;;;;;;;;;5073850;28;20115;-69
2021/11/13 06:51:08;;;;;;;30.17;18.65;;;;;;;;;;5073832;28;20496;-70
2021/11/13 06:53:42;;;;;;;32.97;18.98;;;;;;;;;;5074125;28;20075;-69
2021/11/13 06:56:08;;;;;;;33.35;18.98;;;;;;;;;;5074087;28;20028;-69
2021/11/13 06:58:34;;;;;;;36.42;19.73;;;;;;;;;;5072785;28;20021;-69
2021/11/13 07:01:00;;;;;;;41.78;20.52;;;;;;;;;;5072775;28;20559;-69
2021/11/13 07:03:25;;;;;;;41.75;21.77;;;;;;;;;;5055094;28;20100;-69
2021/11/13 07:05:51;;;;;;;33.28;19.02;;;;;;;;;;5073072;28;20165;-69
2021/11/13 07:08:20;;;;;;;33.97;18.70;;;;;;;;;;5073530;28;20372;-69
2021/11/13 07:10:45;;;;;;;34.25;19.33;;;;;;;;;;5073723;28;20040;-69
2021/11/13 07:13:13;;;;;;;37.90;21.45;;;;;;;;;;5072385;28;20028;-69
2021/11/13 07:15:42;;;;;;;38.92;23.02;;;;;;;;;;5039091;28;20033;-69
2021/11/13 07:18:07;;;;;;;40.33;22.50;;;;;;;;;;5073445;28;20024;-69
2021/11/13 07:20:34;;;;;;;37.25;21.63;;;;;;;;;;5073186;28;20039;-69
2021/11/13 07:22:59;;;;;;;32.28;19.50;;;;;;;;;;5072794;28;20039;-69
2021/11/13 07:25:29;;;;;;;33.35;18.60;;;;;;;;;;5055218;28;20464;-68
2021/11/13 07:28:02;;;;;;;36.72;19.73;;;;;;;;;;5073057;28;20060;-69
2021/11/13 07:30:37;;;;;;;35.15;19.88;;;;;;;;;;5072429;28;20045;-69
2021/11/13 07:33:03;;;;;;;33.85;19.15;;;;;;;;;;5073137;28;20048;-69
2021/11/13 07:35:28;;;;;;;34.13;18.70;;;;;;;;;;5073118;28;20024;-69
2021/11/13 07:37:56;;;;;;;38.15;20.48;;;;;;;;;;5073042;28;20040;-69
2021/11/13 07:40:23;;;;;;;30.92;17.45;;;;;;;;;;5072823;28;20020;-70
2021/11/13 07:42:49;;;;;;;31.33;18.02;;;;;;;;;;5072906;28;20037;-69
2021/11/13 07:45:15;;;;;;;34.25;17.90;;;;;;;;;;5055091;28;20024;-69
2021/11/13 07:47:41;;;;;;;29.70;16.15;;;;;;;;;;5073032;28;20033;-69
2021/11/13 07:50:07;;;;;;;27.88;16.77;;;;;;;;;;5073167;28;20037;-68
2021/11/13 07:52:33;;;;;;;32.30;17.58;;;;;;;;;;5073234;28;20033;-69
2021/11/13 07:54:58;;;;;;;30.48;17.42;;;;;;;;;;5073195;28;20032;-69
2021/11/13 07:57:25;;;;;;;30.27;16.67;;;;;;;;;;5073306;28;20043;-69
2021/11/13 07:59:51;;;;;;;29.38;16.88;;;;;;;;;;5073054;28;20211;-68
2021/11/13 08:02:16;;;;;;;30.27;17.67;;;;;;;;;;5072996;28;20143;-69
2021/11/13 08:04:42;;;;;;;25.42;15.48;;;;;;;;;;5072450;28;20033;-69
2021/11/13 08:07:07;;;;;;;30.98;18.27;;;;;;;;;;5073064;28;20040;-69
2021/11/13 08:09:33;;;;;;;29.45;17.48;;;;;;;;;;5072889;28;20024;-69
2021/11/13 08:11:59;;;;;;;30.63;17.98;;;;;;;;;;5072678;28;20040;-69
2021/11/13 08:14:25;;;;;;;32.08;18.35;;;;;;;;;;5072500;28;20027;-69
2021/11/13 08:16:51;;;;;;;33.72;20.00;;;;;;;;;;5072846;28;20459;-69
2021/11/13 08:19:17;;;;;;;43.60;27.23;;;;;;;;;;5071847;28;20024;-69
2021/11/13 08:21:42;;;;;;;43.55;27.63;;;;;;;;;;5071469;28;20032;-69
2021/11/13 08:24:08;;;;;;;32.55;19.90;;;;;;;;;;5072274;28;20071;-69
2021/11/13 08:26:34;;;;;;;53.70;38.17;;;;;;;;;;5052904;28;20036;-68
2021/11/13 08:28:59;;;;;;;37.45;23.55;;;;;;;;;;5053664;28;20492;-69
2021/11/13 08:31:25;;;;;;;37.65;21.90;;;;;;;;;;5072368;28;20063;-69
2021/11/13 08:33:50;;;;;;;34.75;20.58;;;;;;;;;;5037794;28;20055;-68
2021/11/13 08:36:15;;;;;;;37.60;20.98;;;;;;;;;;5072439;28;20048;-69
2021/11/13 08:38:41;;;;;;;36.80;21.48;;;;;;;;;;5072405;28;20469;-68
2021/11/13 08:41:07;;;;;;;41.47;23.38;;;;;;;;;;5072328;28;20040;-68
2021/11/13 08:43:32;;;;;;;41.17;22.20;;;;;;;;;;5072293;28;20031;-68
2021/11/13 08:45:58;;;;;;;39.55;21.05;;;;;;;;;;5072404;28;20036;-68
2021/11/13 08:48:24;;;;;;;39.25;21.73;;;;;;;;;;5072405;28;20032;-68
2021/11/13 08:50:49;;;;;;;40.72;21.60;;;;;;;;;;5054542;28;20032;-68
2021/11/13 08:53:16;;;;;;;41.22;22.35;;;;;;;;;;5074916;28;20021;-74
2021/11/13 08:55:44;;;;;;;39.67;22.17;;;;;;;;;;5074895;28;20029;-74
2021/11/13 08:58:09;;;;;;;39.75;21.42;;;;;;;;;;5074357;28;20024;-74
2021/11/13 09:00:46;;;;;;;42.40;23.90;;;;;;;;;;5057783;28;20040;-74
2021/11/13 09:03:16;;;;;;;51.00;24.67;;;;;;;;;;5075767;28;20037;-74
2021/11/13 09:05:42;;;;;;;40.30;22.65;;;;;;;;;;5075542;28;20043;-74
2021/11/13 09:08:07;;;;;;;45.53;27.27;;;;;;;;;;5075762;28;20415;-74
2021/11/13 09:10:34;;;;;;;44.40;24.27;;;;;;;;;;5075251;28;20040;-64
2021/11/13 09:13:00;;;;;;;36.10;19.38;;;;;;;;;;5075632;28;20032;-74
2021/11/13 09:15:28;;;;;;;38.13;20.38;;;;;;;;;;5075797;28;20036;-74
2021/11/13 09:17:54;;;;;;;39.28;20.70;;;;;;;;;;5075654;28;20016;-74
2021/11/13 09:20:20;;;;;;;46.67;25.80;;;;;;;;;;5075407;28;20064;-74
2021/11/13 09:22:46;;;;;;;48.97;24.35;;;;;;;;;;5075346;28;20496;-74
2021/11/13 09:25:12;;;;;;;50.80;26.75;;;;;;;;;;5057720;28;20052;-74
2021/11/13 09:27:39;;;;;;;41.00;22.65;;;;;;;;;;5075296;28;20063;-74
2021/11/13 09:30:06;;;;;;;41.90;21.55;;;;;;;;;;5057184;28;20064;-74
2021/11/13 09:32:32;;;;;;;42.58;23.20;;;;;;;;;;5075427;28;20072;-74
2021/11/13 09:34:57;;;;;;;44.67;25.08;;;;;;;;;;5075233;28;20139;-74
2021/11/13 09:37:23;;;;;;;58.80;30.00;;;;;;;;;;5075151;28;20120;-74
2021/11/13 09:39:48;;;;;;;58.70;31.58;;;;;;;;;;5075155;28;20040;-74
2021/11/13 09:42:14;;;;;;;83.40;37.65;;;;;;;;;;5075051;28;20033;-74
2021/11/13 09:44:39;;;;;;;70.35;38.45;;;;;;;;;;5040490;28;20491;-74
2021/11/13 09:47:05;;;;;;;102.60;76.18;;;;;;;;;;5075082;28;20384;-74
2021/11/13 09:49:31;;;;;;;47.83;26.67;;;;;;;;;;5057335;28;20037;-74
2021/11/13 09:51:57;;;;;;;45.20;25.40;;;;;;;;;;5074971;28;20112;-74
2021/11/13 09:54:23;;;;;;;38.00;22.40;;;;;;;;;;5074895;28;20033;-73
2021/11/13 09:56:48;;;;;;;52.40;28.08;;;;;;;;;;5075151;28;20108;-74
2021/11/13 09:59:14;;;;;;;61.80;34.75;;;;;;;;;;5075221;28;20119;-69
2021/11/13 10:01:39;;;;;;;46.83;27.35;;;;;;;;;;5075043;28;20456;-70
2021/11/13 10:04:05;;;;;;;37.85;21.92;;;;;;;;;;5074503;28;20515;-70
2021/11/13 10:06:31;;;;;;;44.42;23.92;;;;;;;;;;5074432;28;20475;-69
2021/11/13 10:08:57;;;;;;;43.78;23.17;;;;;;;;;;5074627;28;20412;-69
2021/11/13 10:11:24;;;;;;;37.47;21.42;;;;;;;;;;5074750;28;20109;-70
2021/11/13 10:13:53;;;;;;;40.35;21.73;;;;;;;;;;5074579;28;20037;-70
2021/11/13 10:16:21;;;;;;;40.53;21.73;;;;;;;;;;5074601;28;20036;-70
2021/11/13 10:18:51;;;;;;;41.72;22.77;;;;;;;;;;5074545;28;20108;-70
2021/11/13 10:21:19;;;;;;;46.97;27.40;;;;;;;;;;5074666;28;20033;-70
2021/11/13 10:23:47;;;;;;;48.60;27.95;;;;;;;;;;5074332;28;20117;-70
2021/11/13 10:26:22;;;;;;;44.53;25.10;;;;;;;;;;5072816;28;20032;-70
2021/11/13 10:28:50;;;;;;;47.75;26.15;;;;;;;;;;5073169;28;20033;-70
2021/11/13 10:31:19;;;;;;;41.22;22.05;;;;;;;;;;5073594;28;20036;-70
2021/11/13 10:33:44;;;;;;;48.83;27.02;;;;;;;;;;5056576;28;20112;-70
2021/11/13 10:36:10;;;;;;;56.63;32.67;;;;;;;;;;5074231;28;20028;-69
2021/11/13 10:38:36;;;;;;;91.35;47.92;;;;;;;;;;5074257;28;20087;-69
2021/11/13 10:41:04;;;;;;;60.45;31.77;;;;;;;;;;5074066;28;20025;-70
2021/11/13 10:43:31;;;;;;;51.08;27.60;;;;;;;;;;5073941;28;20036;-69
2021/11/13 10:46:02;;;;;;;47.58;25.83;;;;;;;;;;5039506;28;20196;-69
2021/11/13 10:48:27;;;;;;;;;;;;;;;;;;5074501;28;20037;-70
2021/11/13 10:51:05;;;;;;;40.13;21.88;;;;;;;;;;5073617;28;19910;-69
2021/11/13 10:53:35;;;;;;;48.83;26.45;;;;;;;;;;5073631;28;20032;-69
2021/11/13 10:56:21;;;;;;;49.03;25.98;;;;;;;;;;5073892;28;20033;-69
2021/11/13 10:58:49;;;;;;;56.88;30.45;;;;;;;;;;5073549;28;20624;-69
2021/11/13 11:01:29;;;;;;;40.15;23.45;;;;;;;;;;5073229;28;20451;-74
2021/11/13 11:04:01;;;;;;;44.83;25.48;;;;;;;;;;5055102;28;20064;-74
2021/11/13 11:06:31;;;;;;;40.42;24.48;;;;;;;;;;5072930;28;20094;-74
2021/11/13 11:08:58;;;;;;;38.80;23.30;;;;;;;;;;5073619;28;20546;-74
2021/11/13 11:11:26;;;;;;;38.20;22.58;;;;;;;;;;5073779;28;20028;-74
2021/11/13 11:13:52;;;;;;;70.15;37.65;;;;;;;;;;5055634;28;20040;-74
2021/11/13 11:16:25;;;;;;;117.32;61.80;;;;;;;;;;5073134;28;20033;-74
2021/11/13 11:19:11;;;;;;;49.08;28.30;;;;;;;;;;5073515;28;20055;-74
2021/11/13 11:21:37;;;;;;;42.60;24.27;;;;;;;;;;5073242;28;20032;-74
2021/11/13 11:24:10;;;;;;;45.15;24.50;;;;;;;;;;5073163;28;20116;-74
2021/11/13 11:26:37;;;;;;;43.30;26.60;;;;;;;;;;5072110;28;20037;-74
2021/11/13 11:29:03;;;;;;;46.63;27.05;;;;;;;;;;5072862;28;20506;-74
2021/11/13 11:31:43;;;;;;;41.72;23.95;;;;;;;;;;5073513;28;20041;-74
2021/11/13 11:34:37;;;;;;;46.55;25.38;;;;;;;;;;5073331;28;20118;-74
2021/11/13 11:37:17;;;;;;;47.83;26.63;;;;;;;;;;5051700;28;20131;-74
2021/11/13 11:39:44;;;;;;;44.65;24.20;;;;;;;;;;5073420;28;20037;-74
2021/11/13 11:42:10;;;;;;;48.80;24.90;;;;;;;;;;5073052;28;20029;-74
2021/11/13 11:44:37;;;;;;;41.90;24.50;;;;;;;;;;5073260;28;20036;-74
2021/11/13 11:47:06;;;;;;;48.40;26.17;;;;;;;;;;5072937;28;20040;-74
2021/11/13 11:49:32;;;;;;;47.58;26.23;;;;;;;;;;5072920;28;20052;-74
2021/11/13 11:51:57;;;;;;;43.80;25.67;;;;;;;;;;5072865;28;20032;-74
2021/11/13 11:54:23;;;;;;;38.72;22.67;;;;;;;;;;5072897;28;20480;-74
2021/11/13 11:56:49;;;;;;;39.67;24.05;;;;;;;;;;5072506;28;20016;-74
2021/11/13 11:59:15;;;;;;;51.80;29.25;;;;;;;;;;5054908;28;20102;-74
2021/11/13 12:01:41;;;;;;;50.30;29.23;;;;;;;;;;5054949;28;20025;-74
2021/11/13 12:04:24;;;;;;;46.30;26.33;;;;;;;;;;5072772;28;20040;-74
2021/11/13 12:06:54;;;;;;;47.25;26.15;;;;;;;;;;5072886;28;20067;-74
2021/11/13 12:09:21;;;;;;;40.15;25.08;;;;;;;;;;5072926;28;20037;-74
2021/11/13 12:11:47;;;;;;;46.38;26.17;;;;;;;;;;5072783;28;20059;-74
2021/11/13 12:14:23;;;;;;;45.20;25.27;;;;;;;;;;5072611;28;20135;-74
2021/11/13 12:16:50;;;;;;;41.00;24.70;;;;;;;;;;5072769;28;20071;-74
2021/11/13 12:19:15;;;;;;;36.10;21.38;;;;;;;;;;5072536;28;20468;-74
2021/11/13 12:21:52;;;;;;;46.22;26.15;;;;;;;;;;5072572;28;20029;-74
2021/11/13 12:24:18;;;;;;;41.42;22.73;;;;;;;;;;5072524;28;20451;-74
2021/11/13 12:26:57;;;;;;;60.22;31.48;;;;;;;;;;5072858;28;20033;-74
2021/11/13 12:29:23;;;;;;;52.97;31.73;;;;;;;;;;5076134;28;20396;-74
2021/11/13 12:31:53;;;;;;;60.03;32.97;;;;;;;;;;5076419;28;20049;-74
2021/11/13 12:34:21;;;;;;;47.28;27.88;;;;;;;;;;5076404;28;20124;-74
2021/11/13 12:36:54;;;;;;;55.15;28.75;;;;;;;;;;5076291;28;20020;-75
2021/11/13 12:39:21;;;;;;;58.30;28.80;;;;;;;;;;5076189;28;20037;-75
2021/11/13 12:41:57;;;;;;;50.80;28.60;;;;;;;;;;5076167;28;20024;-75
2021/11/13 12:44:30;;;;;;;51.42;28.38;;;;;;;;;;5076226;28;20492;-75
2021/11/13 12:47:04;;;;;;;48.50;28.42;;;;;;;;;;5066821;28;20493;-74
2021/11/13 12:49:30;;;;;;;52.20;31.10;;;;;;;;;;5057340;28;20073;-75
2021/11/13 12:51:57;;;;;;;71.90;37.55;;;;;;;;;;5056043;28;20126;-75
2021/11/13 12:54:25;;;;;;;94.95;46.72;;;;;;;;;;5056204;28;20041;-75
2021/11/13 12:57:09;;;;;;;55.20;32.15;;;;;;;;;;5055832;28;20031;-75
2021/11/13 12:59:36;;;;;;;59.20;32.78;;;;;;;;;;5055802;28;20119;-75
2021/11/13 13:02:10;;;;;;;62.45;33.40;;;;;;;;;;5038060;28;20025;-75
2021/11/13 13:04:38;;;;;;;75.45;43.47;;;;;;;;;;5055811;28;20508;-75
2021/11/13 13:07:06;;;;;;;68.57;40.47;;;;;;;;;;5037887;28;20381;-75
2021/11/13 13:09:46;;;;;;;55.08;31.60;;;;;;;;;;5055624;28;20120;-75
2021/11/13 13:12:13;;;;;;;65.03;36.80;;;;;;;;;;5055599;28;20045;-75
2021/11/13 13:14:39;;;;;;;61.17;33.20;;;;;;;;;;5037733;28;20057;-74
2021/11/13 13:17:04;;;;;;;70.13;40.60;;;;;;;;;;5037776;28;20040;-74
2021/11/13 13:19:32;;;;;;;52.53;29.40;;;;;;;;;;5037572;28;20469;-74
2021/11/13 13:21:57;;;;;;;53.97;28.95;;;;;;;;;;5055413;28;20471;-74
2021/11/13 13:24:23;;;;;;;76.60;44.75;;;;;;;;;;5055323;28;20040;-73
2021/11/13 13:26:49;;;;;;;60.92;33.70;;;;;;;;;;5055266;28;20495;-73
2021/11/13 13:29:19;;;;;;;57.90;29.52;;;;;;;;;;5039519;28;20072;-70
2021/11/13 13:32:03;;;;;;;72.88;42.47;;;;;;;;;;5075510;28;20048;-69
2021/11/13 13:34:29;;;;;;;96.13;55.75;;;;;;;;;;5057570;28;20044;-69
2021/11/13 13:37:41;;;;;;;46.03;23.73;;;;;;;;;;5075650;28;20029;-69
2021/11/13 13:39:42;;;;;;;40.60;21.65;;;;;;;;;;5060205;28;20040;-70
2021/11/13 13:42:08;;;;;;;47.53;24.83;;;;;;;;;;5075042;28;20098;-69
2021/11/13 13:44:34;;;;;;;55.17;33.47;;;;;;;;;;5074508;28;20392;-69
2021/11/13 13:46:59;;;;;;;93.57;57.47;;;;;;;;;;5075209;28;20522;-69
2021/11/13 13:49:25;;;;;;;162.98;97.25;;;;;;;;;;5075310;28;20035;-69
2021/11/13 13:51:56;;;;;;;184.55;113.93;;;;;;;;;;5074926;28;20024;-69
2021/11/13 13:54:26;;;;;;;66.90;38.42;;;;;;;;;;5057155;28;20408;-69
2021/11/13 13:56:53;;;;;;;136.18;69.07;;;;;;;;;;5056796;28;20032;-69
2021/11/13 13:59:20;;;;;;;90.05;47.85;;;;;;;;;;5075318;28;20099;-69
2021/11/13 14:01:57;;;;;;;189.25;93.80;;;;;;;;;;5075056;28;20032;-69
2021/11/13 14:04:25;;;;;;;85.80;51.75;;;;;;;;;;5074546;28;20075;-69
2021/11/13 14:06:52;;;;;;;63.35;36.72;;;;;;;;;;5074516;28;20051;-70
2021/11/13 14:09:18;;;;;;;75.45;45.58;;;;;;;;;;5074293;28;20552;-70
2021/11/13 14:11:43;;;;;;;175.70;63.92;;;;;;;;;;5074469;28;20523;-69
2021/11/13 14:14:22;;;;;;;249.32;83.70;;;;;;;;;;5074299;28;20036;-70
2021/11/13 14:16:47;;;;;;;205.57;119.47;;;;;;;;;;5056497;28;20041;-70
2021/11/13 14:19:14;;;;;;;88.80;54.85;;;;;;;;;;5074192;28;20112;-70